Time;durP1;ratioP1;P1;durP2;ratioP2;P2;SDS_P1;SDS_P2;PMS_P1;PMS_P2;Temp;Humidity;BMP_temperature;BMP_pressure;BME280_temperature;BME280_humidity;BME280_pressure;Samples;Min_cycle;Max_cycle;Signal;HPM_P1;HPM_P2
2021/04/02 00:02:06;;;;;;;8.75;4.10;;;18.20;45.80;;;;;;5074948;28;20133;-73
2021/04/02 00:04:32;;;;;;;11.63;3.72;;;18.20;46.00;;;;;;5072824;28;20029;-73
2021/04/02 00:06:58;;;;;;;9.25;4.22;;;18.10;45.90;;;;;;5073649;28;20025;-73
2021/04/02 00:09:24;;;;;;;10.43;4.68;;;18.10;46.30;;;;;;5074469;28;20028;-73
2021/04/02 00:11:49;;;;;;;11.18;4.28;;;18.10;46.50;;;;;;5074814;28;20021;-73
2021/04/02 00:14:15;;;;;;;9.82;3.70;;;18.00;46.50;;;;;;5074724;28;20024;-73
2021/04/02 00:16:41;;;;;;;14.77;4.88;;;18.00;47.10;;;;;;5061768;28;20075;-73
2021/04/02 00:19:06;;;;;;;12.52;5.07;;;18.00;46.60;;;;;;5054618;28;20108;-74
2021/04/02 00:21:32;;;;;;;10.25;4.38;;;18.10;46.60;;;;;;5054567;28;20538;-73
2021/04/02 00:23:58;;;;;;;10.43;3.88;;;18.10;46.90;;;;;;5054758;28;20021;-73
2021/04/02 00:26:25;;;;;;;9.30;3.92;;;18.00;46.80;;;;;;5053049;28;20029;-73
2021/04/02 00:28:52;;;;;;;13.32;4.07;;;18.00;46.70;;;;;;5054326;28;20025;-73
2021/04/02 00:31:19;;;;;;;9.27;3.58;;;18.00;47.60;;;;;;5054263;28;20025;-74
2021/04/02 00:33:45;;;;;;;13.70;5.20;;;18.00;47.20;;;;;;5054328;28;20049;-73
2021/04/02 00:36:11;;;;;;;18.35;4.10;;;18.00;47.20;;;;;;5053918;28;20017;-74
2021/04/02 00:38:37;;;;;;;15.93;5.55;;;17.90;47.10;;;;;;5055325;28;20135;-73
2021/04/02 00:41:07;;;;;;;10.05;3.95;;;17.90;47.50;;;;;;5074206;28;20109;-73
2021/04/02 00:43:39;;;;;;;12.85;4.65;;;17.90;47.30;;;;;;5052770;28;20021;-73
2021/04/02 00:46:06;;;;;;;11.55;4.13;;;17.80;47.60;;;;;;5051902;28;20371;-73
2021/04/02 00:48:32;;;;;;;8.60;3.78;;;17.80;47.60;;;;;;5052174;28;20146;-74
2021/04/02 00:51:01;;;;;;;6.65;3.72;;;17.80;47.50;;;;;;5053896;28;20045;-73
2021/04/02 00:53:31;;;;;;;7.13;3.30;;;17.70;47.40;;;;;;5053987;28;20074;-73
2021/04/02 00:55:59;;;;;;;14.13;4.65;;;17.70;46.90;;;;;;5053930;28;20040;-73
2021/04/02 00:58:28;;;;;;;8.77;4.57;;;17.60;47.60;;;;;;5068774;28;20593;-73
2021/04/02 01:00:54;;;;;;;8.57;3.15;;;17.60;47.20;;;;;;5073844;28;20036;-74
2021/04/02 01:03:21;;;;;;;10.30;4.20;;;17.50;47.20;;;;;;5073461;28;20029;-73
2021/04/02 01:05:49;;;;;;;12.18;3.13;;;17.50;47.50;;;;;;5073726;28;20466;-73
2021/04/02 01:08:19;;;;;;;12.45;3.78;;;17.50;47.40;;;;;;5073743;28;20028;-73
2021/04/02 01:10:48;;;;;;;10.13;3.60;;;17.50;47.40;;;;;;5064597;28;20033;-73
2021/04/02 01:13:27;;;;;;;7.82;3.67;;;17.50;47.40;;;;;;5053688;28;20470;-73
2021/04/02 01:16:02;;;;;;;9.43;4.28;;;17.50;47.70;;;;;;5053480;28;20478;-73
2021/04/02 01:18:31;;;;;;;16.05;5.93;;;17.50;48.10;;;;;;5053510;28;20483;-72
2021/04/02 01:21:04;;;;;;;8.43;4.53;;;17.50;47.90;;;;;;5053496;28;20394;-73
2021/04/02 01:23:40;;;;;;;10.50;4.50;;;17.50;47.60;;;;;;5053264;28;20032;-74
2021/04/02 01:26:27;;;;;;;15.55;3.95;;;17.50;48.30;;;;;;5051955;28;20025;-74
2021/04/02 01:28:56;;;;;;;7.70;3.20;;;17.50;48.30;;;;;;5053254;28;20031;-74
2021/04/02 01:31:23;;;;;;;8.43;3.58;;;17.60;47.70;;;;;;5053170;28;20029;-74
2021/04/02 01:33:51;;;;;;;14.02;5.53;;;17.60;47.70;;;;;;5053261;28;20493;-74
2021/04/02 01:36:18;;;;;;;8.93;3.55;;;17.60;47.70;;;;;;5055259;28;20021;-73
2021/04/02 01:38:44;;;;;;;13.40;3.65;;;17.60;47.40;;;;;;5068290;28;20067;-74
2021/04/02 01:41:11;;;;;;;6.72;3.60;;;17.60;47.50;;;;;;5052992;28;20025;-74
2021/04/02 01:43:49;;;;;;;8.98;3.97;;;17.50;47.30;;;;;;5053053;28;20048;-74
2021/04/02 01:46:17;;;;;;;12.45;3.63;;;17.40;48.20;;;;;;5053016;28;20404;-74
2021/04/02 01:48:45;;;;;;;10.80;3.63;;;17.30;48.20;;;;;;5052255;28;20100;-74
2021/04/02 01:51:16;;;;;;;19.05;3.15;;;17.30;47.90;;;;;;5052660;28;20424;-74
2021/04/02 01:53:45;;;;;;;8.85;2.97;;;17.20;47.70;;;;;;5052974;28;20029;-74
2021/04/02 01:56:12;;;;;;;8.63;3.17;;;17.20;47.80;;;;;;5052808;28;20056;-74
2021/04/02 01:58:41;;;;;;;14.68;3.78;;;17.10;47.60;;;;;;5052988;28;20016;-74
2021/04/02 02:01:07;;;;;;;10.10;4.70;;;17.00;47.70;;;;;;5068881;28;20497;-74
2021/04/02 02:03:34;;;;;;;15.00;5.50;;;17.00;48.10;;;;;;5052709;28;20103;-74
2021/04/02 02:06:02;;;;;;;12.70;4.97;;;16.90;48.50;;;;;;5052553;28;20024;-74
2021/04/02 02:08:29;;;;;;;15.63;5.35;;;16.80;48.50;;;;;;5052576;28;20021;-74
2021/04/02 02:11:07;;;;;;;18.35;5.07;;;16.80;48.80;;;;;;5052566;28;20100;-74
2021/04/02 02:13:34;;;;;;;11.32;4.80;;;16.70;49.20;;;;;;5051263;28;20099;-74
2021/04/02 02:16:04;;;;;;;11.02;4.07;;;16.70;49.20;;;;;;5052416;28;20029;-75
2021/04/02 02:18:30;;;;;;;10.18;3.55;;;16.60;49.20;;;;;;5052437;28;20562;-75
2021/04/02 02:20:56;;;;;;;8.60;3.17;;;16.60;49.10;;;;;;5052440;28;20104;-74
2021/04/02 02:23:22;;;;;;;9.20;3.55;;;16.60;49.10;;;;;;5052304;28;20036;-74
2021/04/02 02:25:48;;;;;;;10.32;3.40;;;16.50;49.00;;;;;;5052182;28;20037;-74
2021/04/02 02:28:15;;;;;;;7.97;3.60;;;16.50;49.00;;;;;;5052247;28;20028;-75
2021/04/02 02:30:44;;;;;;;16.70;5.05;;;16.50;49.00;;;;;;5052093;28;20021;-74
2021/04/02 02:33:12;;;;;;;33.45;13.75;;;16.50;49.20;;;;;;5052151;28;20049;-74
2021/04/02 02:35:39;;;;;;;47.50;23.65;;;16.40;49.00;;;;;;5052232;28;20025;-74
2021/04/02 02:38:05;;;;;;;45.88;23.42;;;16.40;47.50;;;;;;5054070;28;20036;-74
2021/04/02 02:40:34;;;;;;;42.83;20.92;;;16.40;47.10;;;;;;5062722;28;20024;-74
2021/04/02 02:43:00;;;;;;;41.47;23.33;;;16.40;47.10;;;;;;5069973;28;20116;-74
2021/04/02 02:45:28;;;;;;;41.53;22.73;;;16.40;46.80;;;;;;5069462;28;20025;-74
2021/04/02 02:47:54;;;;;;;41.85;23.95;;;16.50;46.60;;;;;;5072379;28;20081;-75
2021/04/02 02:50:24;;;;;;;43.55;22.75;;;16.50;46.10;;;;;;5069913;28;20470;-74
2021/04/02 02:52:52;;;;;;;36.33;20.38;;;16.50;45.90;;;;;;5072786;28;20374;-74
2021/04/02 02:55:20;;;;;;;52.65;26.05;;;16.50;45.80;;;;;;5072891;28;20470;-74
2021/04/02 02:57:49;;;;;;;48.72;25.20;;;16.50;45.50;;;;;;5073242;28;20107;-74
2021/04/02 03:00:18;;;;;;;48.58;25.55;;;16.50;45.30;;;;;;5075989;28;20418;-74
2021/04/02 03:02:49;;;;;;;56.90;27.30;;;16.50;45.20;;;;;;5075815;28;20027;-74
2021/04/02 03:05:21;;;;;;;49.15;27.35;;;16.50;45.10;;;;;;5077063;28;20074;-74
2021/04/02 03:07:53;;;;;;;57.95;28.58;;;16.50;45.10;;;;;;5076340;28;20351;-75
2021/04/02 03:10:20;;;;;;;59.25;28.67;;;16.50;45.00;;;;;;5076978;28;20490;-75
2021/04/02 03:12:48;;;;;;;50.28;26.38;;;16.50;45.00;;;;;;5076868;28;20039;-74
2021/04/02 03:15:17;;;;;;;55.90;27.95;;;16.50;45.00;;;;;;5076874;28;20024;-74
2021/04/02 03:17:44;;;;;;;57.70;28.08;;;16.50;44.90;;;;;;5076746;28;20021;-74
2021/04/02 03:20:12;;;;;;;55.33;27.98;;;16.40;44.90;;;;;;5076699;28;20028;-75
2021/04/02 03:22:38;;;;;;;55.13;26.50;;;16.40;45.00;;;;;;5076697;28;20027;-74
2021/04/02 03:25:11;;;;;;;59.15;30.23;;;16.40;45.00;;;;;;5076499;28;20029;-74
2021/04/02 03:27:39;;;;;;;53.42;28.88;;;16.40;44.90;;;;;;5076619;28;20028;-74
2021/04/02 03:30:11;;;;;;;68.03;31.17;;;16.40;45.00;;;;;;5076544;28;20048;-74
2021/04/02 03:32:41;;;;;;;56.58;28.08;;;16.30;44.90;;;;;;5076395;28;20386;-74
2021/04/02 03:35:09;;;;;;;45.65;25.83;;;16.30;44.90;;;;;;5076486;28;20036;-74
2021/04/02 03:37:37;;;;;;;61.55;32.00;;;16.30;44.90;;;;;;5071135;28;20016;-74
2021/04/02 03:40:08;;;;;;;58.58;30.80;;;16.30;44.90;;;;;;5056303;28;20028;-74
2021/04/02 03:42:35;;;;;;;67.65;33.38;;;16.20;45.00;;;;;;5056206;28;20107;-74
2021/04/02 03:45:03;;;;;;;67.32;33.78;;;16.20;45.10;;;;;;5054790;28;20025;-75
2021/04/02 03:47:34;;;;;;;64.47;33.38;;;16.20;45.20;;;;;;5056172;28;20066;-74
2021/04/02 03:50:01;;;;;;;54.17;30.92;;;16.10;45.20;;;;;;5055889;28;20028;-75
2021/04/02 03:52:38;;;;;;;57.63;29.67;;;16.10;45.20;;;;;;5056122;28;20024;-74
2021/04/02 03:55:06;;;;;;;54.53;29.67;;;16.10;45.20;;;;;;5055989;28;20017;-74
2021/04/02 03:57:33;;;;;;;64.97;32.75;;;16.10;45.30;;;;;;5055905;28;20029;-74
2021/04/02 04:00:05;;;;;;;59.30;31.33;;;16.00;45.40;;;;;;5055960;28;20029;-74
2021/04/02 04:02:32;;;;;;;56.13;31.45;;;16.00;45.40;;;;;;5055860;28;20029;-74
2021/04/02 04:05:00;;;;;;;54.42;29.92;;;16.00;45.40;;;;;;5055767;28;20056;-75
2021/04/02 04:07:28;;;;;;;63.95;33.53;;;15.90;45.40;;;;;;5055800;28;20031;-74
2021/04/02 04:09:55;;;;;;;67.00;36.90;;;15.90;45.70;;;;;;5055694;28;20070;-74
2021/04/02 04:12:23;;;;;;;61.22;32.33;;;15.90;46.00;;;;;;5054768;28;20024;-74
2021/04/02 04:14:52;;;;;;;58.30;30.45;;;15.80;46.00;;;;;;5054475;28;20029;-74
2021/04/02 04:17:20;;;;;;;67.28;35.72;;;15.80;46.00;;;;;;5055686;28;20021;-74
2021/04/02 04:19:48;;;;;;;77.45;38.88;;;15.80;46.10;;;;;;5055607;28;20559;-74
2021/04/02 04:22:16;;;;;;;59.88;32.22;;;15.80;46.20;;;;;;5055559;28;20076;-74
2021/04/02 04:24:46;;;;;;;57.05;30.80;;;15.70;46.10;;;;;;5054220;28;20032;-74
2021/04/02 04:27:13;;;;;;;64.70;35.42;;;15.70;46.10;;;;;;5054184;28;20040;-74
2021/04/02 04:29:44;;;;;;;60.65;32.83;;;15.70;46.80;;;;;;5055354;28;20013;-74
2021/04/02 04:32:15;;;;;;;57.55;31.08;;;15.70;46.20;;;;;;5055410;28;20028;-74
2021/04/02 04:34:44;;;;;;;53.95;29.75;;;15.70;46.10;;;;;;5055392;28;20029;-74
2021/04/02 04:37:12;;;;;;;61.67;27.70;;;15.70;46.10;;;;;;5055171;28;20112;-74
2021/04/02 04:39:40;;;;;;;51.10;26.73;;;15.60;46.40;;;;;;5055261;28;20364;-74
2021/04/02 04:42:07;;;;;;;54.17;28.73;;;15.60;46.70;;;;;;5077853;28;20032;-74
2021/04/02 04:44:34;;;;;;;72.25;38.13;;;15.60;46.80;;;;;;5093724;28;20107;-74
2021/04/02 04:47:00;;;;;;;68.88;37.38;;;15.50;46.90;;;;;;5094579;28;20023;-74
2021/04/02 04:49:26;;;;;;;61.90;33.80;;;15.50;47.00;;;;;;5094841;28;20017;-74
2021/04/02 04:51:53;;;;;;;64.88;35.95;;;15.50;47.00;;;;;;5095052;28;20047;-74
2021/04/02 04:54:24;;;;;;;63.92;35.35;;;15.50;47.10;;;;;;5095173;28;20381;-74
2021/04/02 04:56:53;;;;;;;52.95;29.58;;;15.50;47.20;;;;;;5095157;28;20044;-74
2021/04/02 04:59:21;;;;;;;59.03;31.67;;;15.50;47.20;;;;;;5095066;28;20469;-74
2021/04/02 05:01:50;;;;;;;49.85;26.05;;;15.50;47.70;;;;;;5095035;28;20028;-74
2021/04/02 05:04:17;;;;;;;57.08;28.13;;;15.50;47.60;;;;;;5094927;28;20381;-74
2021/04/02 05:06:45;;;;;;;54.83;30.17;;;15.50;47.80;;;;;;5094849;28;20020;-74
2021/04/02 05:09:12;;;;;;;53.33;29.95;;;15.60;47.80;;;;;;5094885;28;20519;-74
2021/04/02 05:11:40;;;;;;;51.13;26.05;;;15.70;47.70;;;;;;5093606;28;20032;-74
2021/04/02 05:14:11;;;;;;;45.22;25.00;;;15.70;47.90;;;;;;5094813;28;20016;-74
2021/04/02 05:16:38;;;;;;;48.90;25.27;;;15.80;48.00;;;;;;5094675;28;20043;-74
2021/04/02 05:19:05;;;;;;;43.05;23.33;;;15.80;48.30;;;;;;5094621;28;20020;-74
2021/04/02 05:21:31;;;;;;;44.75;24.23;;;15.90;48.30;;;;;;5094716;28;20052;-74
2021/04/02 05:23:57;;;;;;;43.15;25.08;;;15.90;48.30;;;;;;5094517;28;20114;-74
2021/04/02 05:26:22;;;;;;;42.70;22.73;;;15.90;48.20;;;;;;5094604;28;20056;-74
2021/04/02 05:28:49;;;;;;;54.30;29.50;;;16.00;48.00;;;;;;5094527;28;20020;-74
2021/04/02 05:31:15;;;;;;;49.55;27.30;;;16.00;47.90;;;;;;5094552;28;20024;-74
2021/04/02 05:33:41;;;;;;;50.83;28.67;;;16.10;47.90;;;;;;5094419;28;20020;-74
2021/04/02 05:36:07;;;;;;;56.72;29.83;;;16.10;47.90;;;;;;5061445;28;20016;-74
2021/04/02 05:38:33;;;;;;;50.10;28.52;;;16.10;47.70;;;;;;5052849;28;20029;-75
2021/04/02 05:41:08;;;;;;;51.63;29.60;;;16.20;47.60;;;;;;5052710;28;20075;-74
2021/04/02 05:43:55;;;;;;;47.95;26.52;;;16.20;47.50;;;;;;5053934;28;20035;-74
2021/04/02 05:46:24;;;;;;;58.15;28.80;;;16.30;47.30;;;;;;5053902;28;20107;-74
2021/04/02 05:49:04;;;;;;;56.70;30.50;;;16.40;47.30;;;;;;5053847;28;20096;-74
2021/04/02 05:51:31;;;;;;;54.08;30.48;;;16.50;47.20;;;;;;5053691;28;20048;-74
2021/04/02 05:53:59;;;;;;;48.30;26.15;;;16.50;47.10;;;;;;5052488;28;20463;-74
2021/04/02 05:56:26;;;;;;;47.42;26.80;;;16.50;46.80;;;;;;5052535;28;20021;-74
2021/04/02 05:58:52;;;;;;;43.20;26.27;;;16.60;46.70;;;;;;5052420;28;20021;-74
2021/04/02 06:01:18;;;;;;;54.88;31.05;;;16.60;46.80;;;;;;5052470;28;20029;-74
2021/04/02 06:03:45;;;;;;;71.25;38.70;;;16.70;46.60;;;;;;5052337;28;20025;-74
2021/04/02 06:06:13;;;;;;;62.65;35.85;;;16.70;46.50;;;;;;5053427;28;20108;-74
2021/04/02 06:08:46;;;;;;;62.88;36.03;;;16.80;46.30;;;;;;5053465;28;20021;-74
2021/04/02 06:11:13;;;;;;;67.10;36.17;;;16.80;46.30;;;;;;5053469;28;20029;-74
2021/04/02 06:13:39;;;;;;;64.30;38.80;;;16.90;46.10;;;;;;5052198;28;20021;-74
2021/04/02 06:16:06;;;;;;;69.38;36.88;;;16.90;45.90;;;;;;5052135;28;20386;-74
2021/04/02 06:18:38;;;;;;;57.28;33.80;;;16.90;45.80;;;;;;5052424;28;20386;-75
2021/04/02 06:21:04;;;;;;;67.43;37.20;;;17.00;45.90;;;;;;5053304;28;20025;-74
2021/04/02 06:23:32;;;;;;;54.95;31.95;;;17.00;45.60;;;;;;5053132;28;20025;-75
2021/04/02 06:26:04;;;;;;;53.85;30.45;;;17.00;45.50;;;;;;5053050;28;20027;-74
2021/04/02 06:28:34;;;;;;;46.30;25.38;;;16.90;45.30;;;;;;5051996;28;20095;-74
2021/04/02 06:31:05;;;;;;;41.97;26.00;;;17.00;45.30;;;;;;5053249;28;20047;-74
2021/04/02 06:33:37;;;;;;;45.60;25.20;;;16.90;45.10;;;;;;5051424;28;20025;-74
2021/04/02 06:36:11;;;;;;;45.05;23.00;;;16.90;45.20;;;;;;5052997;28;20390;-74
2021/04/02 06:38:41;;;;;;;38.88;22.98;;;16.80;45.10;;;;;;5053125;28;20068;-74
2021/04/02 06:41:07;;;;;;;38.85;21.45;;;16.80;45.00;;;;;;5052747;28;20029;-74
2021/04/02 06:43:35;;;;;;;37.22;22.42;;;16.80;45.10;;;;;;5087851;28;20035;-74
2021/04/02 06:46:05;;;;;;;36.50;20.88;;;16.90;45.20;;;;;;5091438;28;20107;-74
2021/04/02 06:48:31;;;;;;;37.00;21.30;;;16.90;45.00;;;;;;5068540;28;20256;-74
2021/04/02 06:50:57;;;;;;;34.38;21.35;;;16.90;44.90;;;;;;5051294;28;20568;-75
2021/04/02 06:53:24;;;;;;;30.63;18.75;;;16.90;44.70;;;;;;5051031;28;20532;-74
2021/04/02 06:55:52;;;;;;;28.55;17.17;;;17.00;44.70;;;;;;5051488;28;20112;-74
2021/04/02 06:58:23;;;;;;;32.50;18.90;;;17.00;44.40;;;;;;5052827;28;20023;-74
2021/04/02 07:00:51;;;;;;;29.25;18.60;;;17.00;44.20;;;;;;5052745;28;20390;-75
2021/04/02 07:03:18;;;;;;;28.67;17.13;;;17.00;44.10;;;;;;5052574;28;20048;-74
2021/04/02 07:05:45;;;;;;;28.70;16.40;;;17.10;44.00;;;;;;5051060;28;20021;-75
2021/04/02 07:08:18;;;;;;;25.98;14.73;;;17.10;44.20;;;;;;5052814;28;20386;-74
2021/04/02 07:10:45;;;;;;;23.98;15.10;;;17.10;43.70;;;;;;5051474;28;20025;-75
2021/04/02 07:13:12;;;;;;;22.45;14.32;;;17.20;43.40;;;;;;5051493;28;20029;-74
2021/04/02 07:15:39;;;;;;;20.80;13.15;;;17.20;43.30;;;;;;5052772;28;20502;-74
2021/04/02 07:18:07;;;;;;;22.58;13.85;;;17.30;42.90;;;;;;5051431;28;20032;-74
2021/04/02 07:20:34;;;;;;;26.65;14.55;;;17.30;42.80;;;;;;5051260;28;20086;-74
2021/04/02 07:23:01;;;;;;;18.92;13.32;;;17.30;42.30;;;;;;5052572;28;20142;-74
2021/04/02 07:25:27;;;;;;;24.80;11.10;;;17.30;42.20;;;;;;5052575;28;20025;-74
2021/04/02 07:27:55;;;;;;;20.75;11.88;;;17.30;42.50;;;;;;5052579;28;20018;-75
2021/04/02 07:30:23;;;;;;;20.70;12.75;;;17.30;42.60;;;;;;5052571;28;20489;-74
2021/04/02 07:32:50;;;;;;;18.42;11.55;;;17.40;42.10;;;;;;5063189;28;20035;-74
2021/04/02 07:35:22;;;;;;;21.92;12.20;;;17.40;42.40;;;;;;5071237;28;20393;-75
2021/04/02 07:37:51;;;;;;;18.77;10.40;;;17.50;42.40;;;;;;5072536;28;20389;-74
2021/04/02 07:40:38;;;;;;;21.17;12.35;;;17.60;42.20;;;;;;5071204;28;20033;-74
2021/04/02 07:43:08;;;;;;;20.60;13.00;;;17.70;41.60;;;;;;5071209;28;20032;-74
2021/04/02 07:45:37;;;;;;;23.20;13.50;;;17.80;41.20;;;;;;5072242;28;20108;-74
2021/04/02 07:48:22;;;;;;;26.40;14.07;;;17.90;40.80;;;;;;5074854;28;20024;-74
2021/04/02 07:50:50;;;;;;;32.50;13.32;;;17.90;40.20;;;;;;5074637;28;20052;-74
2021/04/02 07:53:17;;;;;;;21.05;12.48;;;17.90;40.40;;;;;;5076147;28;20040;-74
2021/04/02 07:56:12;;;;;;;19.80;11.90;;;18.00;40.30;;;;;;5074783;28;20485;-75
2021/04/02 07:58:47;;;;;;;22.95;13.50;;;18.00;40.40;;;;;;5075711;28;20032;-75
2021/04/02 08:01:15;;;;;;;19.83;13.27;;;18.00;39.90;;;;;;5075887;28;20035;-74
2021/04/02 08:03:41;;;;;;;20.95;11.73;;;18.10;39.40;;;;;;5075829;28;20206;-74
2021/04/02 08:06:26;;;;;;;18.17;12.02;;;18.10;39.70;;;;;;5075631;28;20096;-74
2021/04/02 08:08:52;;;;;;;18.88;10.60;;;18.10;39.80;;;;;;5075715;28;20016;-74
2021/04/02 08:11:57;;;;;;;23.75;12.35;;;18.20;40.00;;;;;;5075622;28;20563;-74
2021/04/02 08:14:35;;;;;;;;;;;18.30;39.10;;;;;;5073982;28;20043;-74
2021/04/02 08:17:08;;;;;;;20.58;11.90;;;18.40;40.30;;;;;;5073563;28;19909;-74
2021/04/02 08:19:39;;;;;;;19.02;12.40;;;18.40;38.80;;;;;;5073367;28;20028;-74
2021/04/02 08:22:12;;;;;;;23.00;13.93;;;18.50;38.60;;;;;;5073430;28;20109;-74
2021/04/02 08:24:42;;;;;;;18.67;12.35;;;18.50;38.30;;;;;;5073050;28;20041;-74
2021/04/02 08:27:09;;;;;;;19.95;11.93;;;18.50;38.30;;;;;;5073289;28;20112;-73
2021/04/02 08:29:36;;;;;;;19.80;11.65;;;18.50;38.40;;;;;;5073233;28;20055;-74
2021/04/02 08:32:06;;;;;;;18.15;10.88;;;18.60;38.60;;;;;;5055550;28;20497;-74
2021/04/02 08:34:34;;;;;;;18.63;10.30;;;18.80;38.70;;;;;;5036330;28;20139;-74
2021/04/02 08:37:11;;;;;;;18.98;11.40;;;18.90;38.50;;;;;;5053137;28;20040;-74
2021/04/02 08:39:38;;;;;;;15.88;10.48;;;19.10;38.10;;;;;;5036457;28;20037;-75
2021/04/02 08:42:06;;;;;;;20.63;11.95;;;19.30;38.10;;;;;;5054286;28;20040;-74
2021/04/02 08:44:34;;;;;;;21.80;12.48;;;19.50;37.40;;;;;;5072482;28;20501;-74
2021/04/02 08:47:03;;;;;;;23.08;12.27;;;19.60;37.30;;;;;;5071018;28;20439;-75
2021/04/02 08:49:38;;;;;;;17.60;11.95;;;19.80;37.00;;;;;;5058797;28;20457;-74
2021/04/02 08:52:12;;;;;;;18.42;10.48;;;19.90;36.80;;;;;;5074330;28;20545;-74
2021/04/02 08:54:38;;;;;;;26.35;13.93;;;20.10;36.90;;;;;;5060215;28;20455;-74
2021/04/02 08:57:05;;;;;;;19.05;12.18;;;20.20;36.10;;;;;;5053513;28;20470;-74
2021/04/02 08:59:33;;;;;;;17.88;12.20;;;20.30;36.10;;;;;;5053602;28;20119;-74
2021/04/02 09:01:59;;;;;;;18.52;10.80;;;20.40;35.60;;;;;;5058575;28;20152;-74
2021/04/02 09:04:27;;;;;;;13.15;9.52;;;20.40;35.70;;;;;;5056693;28;20025;-74
2021/04/02 09:06:53;;;;;;;20.27;10.52;;;20.60;35.70;;;;;;5052667;28;20071;-74
2021/04/02 09:09:22;;;;;;;18.52;10.90;;;20.60;35.60;;;;;;5060921;28;20445;-74
2021/04/02 09:11:50;;;;;;;14.90;9.65;;;20.70;35.10;;;;;;5074371;28;20070;-74
2021/04/02 09:14:17;;;;;;;15.50;9.40;;;20.80;35.00;;;;;;5065749;28;20017;-74
2021/04/02 09:16:45;;;;;;;14.82;9.20;;;20.90;34.90;;;;;;5056423;28;20079;-74
2021/04/02 09:19:13;;;;;;;20.20;13.57;;;21.10;34.50;;;;;;5072765;28;20048;-75
2021/04/02 09:21:39;;;;;;;17.95;11.10;;;21.20;34.30;;;;;;5068549;28;20021;-74
2021/04/02 09:24:06;;;;;;;20.13;11.25;;;21.40;33.80;;;;;;5054499;28;20067;-74
2021/04/02 09:26:41;;;;;;;16.77;9.65;;;21.50;33.40;;;;;;5056336;28;20029;-74
2021/04/02 09:29:08;;;;;;;16.10;9.88;;;21.60;33.20;;;;;;5063368;28;20055;-74
2021/04/02 09:31:36;;;;;;;15.93;10.73;;;21.60;33.10;;;;;;5054267;28;20405;-74
2021/04/02 09:34:07;;;;;;;14.38;10.35;;;21.70;33.10;;;;;;5053911;28;20474;-75
2021/04/02 09:36:41;;;;;;;17.17;11.32;;;21.80;33.20;;;;;;5057924;28;20021;-74
2021/04/02 09:39:11;;;;;;;18.38;12.25;;;21.90;32.90;;;;;;5054259;28;20043;-74
2021/04/02 09:41:40;;;;;;;14.57;10.27;;;21.90;32.60;;;;;;5067224;28;20056;-74
2021/04/02 09:44:17;;;;;;;15.88;10.10;;;22.00;32.70;;;;;;5073833;28;20031;-74
2021/04/02 09:46:48;;;;;;;18.10;11.65;;;22.10;32.90;;;;;;5073957;28;20534;-74
2021/04/02 09:49:23;;;;;;;23.25;13.07;;;22.20;32.90;;;;;;5070179;28;20024;-74
2021/04/02 09:51:56;;;;;;;20.05;13.60;;;22.30;32.30;;;;;;5053748;28;20154;-74
2021/04/02 09:54:24;;;;;;;24.50;13.90;;;22.30;32.20;;;;;;5054716;28;20387;-75
2021/04/02 09:56:51;;;;;;;17.90;11.57;;;22.30;31.60;;;;;;5053564;28;20028;-74
2021/04/02 09:59:16;;;;;;;23.25;12.65;;;22.30;32.00;;;;;;5065541;28;20054;-74
2021/04/02 10:01:44;;;;;;;19.75;13.38;;;22.30;32.00;;;;;;5064561;28;20028;-75
2021/04/02 10:04:11;;;;;;;22.95;13.38;;;22.30;32.10;;;;;;5065577;28;20119;-75
2021/04/02 10:06:38;;;;;;;26.27;16.58;;;22.30;32.30;;;;;;5061139;28;20021;-74
2021/04/02 10:09:05;;;;;;;27.65;15.38;;;22.30;32.00;;;;;;5060657;28;20070;-74
2021/04/02 10:11:33;;;;;;;22.08;14.05;;;22.30;31.80;;;;;;5072059;28;20105;-74
2021/04/02 10:13:59;;;;;;;27.45;17.95;;;22.20;31.70;;;;;;5073415;28;20098;-75
2021/04/02 10:16:25;;;;;;;28.50;17.75;;;22.20;31.90;;;;;;5073236;28;20025;-74
2021/04/02 10:18:51;;;;;;;40.65;19.40;;;22.10;32.00;;;;;;5072099;28;20474;-73
2021/04/02 10:21:19;;;;;;;30.85;18.75;;;22.10;32.00;;;;;;5072372;28;20047;-73
2021/04/02 10:23:46;;;;;;;30.90;18.95;;;22.00;32.20;;;;;;5073042;28;20033;-73
2021/04/02 10:26:12;;;;;;;36.67;21.63;;;22.00;32.20;;;;;;5071050;28;20048;-73
2021/04/02 10:28:38;;;;;;;36.60;21.45;;;22.00;32.50;;;;;;5060446;28;20021;-73
2021/04/02 10:31:05;;;;;;;35.65;21.30;;;22.00;32.60;;;;;;5052894;28;20367;-73
2021/04/02 10:33:31;;;;;;;37.75;23.17;;;21.90;32.50;;;;;;5052800;28;20382;-73
2021/04/02 10:35:56;;;;;;;34.08;21.63;;;21.80;32.20;;;;;;5054560;28;20068;-73
2021/04/02 10:38:22;;;;;;;37.10;23.13;;;21.70;32.60;;;;;;5052670;28;20029;-73
2021/04/02 10:40:49;;;;;;;40.97;23.98;;;21.60;32.80;;;;;;5051389;28;20082;-73
2021/04/02 10:43:15;;;;;;;35.47;22.73;;;21.50;33.30;;;;;;5058539;28;20036;-73
2021/04/02 10:45:41;;;;;;;42.05;22.70;;;21.30;32.90;;;;;;5083491;28;20025;-73
2021/04/02 10:48:08;;;;;;;35.20;21.33;;;21.20;33.00;;;;;;5051526;28;20021;-73
2021/04/02 10:50:35;;;;;;;31.23;20.05;;;21.10;33.10;;;;;;5051817;28;20048;-73
2021/04/02 10:53:01;;;;;;;32.53;20.45;;;20.90;33.30;;;;;;5053232;28;20447;-73
2021/04/02 10:55:27;;;;;;;34.20;20.20;;;20.80;33.40;;;;;;5052780;28;20056;-73
2021/04/02 10:57:53;;;;;;;27.85;17.80;;;20.70;33.60;;;;;;5063447;28;20032;-73
2021/04/02 11:00:21;;;;;;;29.95;20.00;;;20.60;34.40;;;;;;5051476;28;20029;-73
2021/04/02 11:02:47;;;;;;;26.50;17.27;;;20.50;34.00;;;;;;5053028;28;20479;-73
2021/04/02 11:05:14;;;;;;;36.83;21.38;;;20.40;34.40;;;;;;5052664;28;20029;-73
2021/04/02 11:07:39;;;;;;;27.80;17.67;;;20.30;34.50;;;;;;5054181;28;20051;-73
2021/04/02 11:10:08;;;;;;;25.23;16.98;;;20.30;34.80;;;;;;5071531;28;20048;-73
2021/04/02 11:12:34;;;;;;;34.05;19.05;;;20.30;35.10;;;;;;5065859;28;20028;-73
2021/04/02 11:15:00;;;;;;;37.65;20.90;;;20.30;35.30;;;;;;5052667;28;20025;-73
2021/04/02 11:17:26;;;;;;;36.30;21.30;;;20.30;35.30;;;;;;5052482;28;20434;-74
2021/04/02 11:19:54;;;;;;;35.30;21.50;;;20.30;35.00;;;;;;5067109;28;20068;-73
2021/04/02 11:22:20;;;;;;;35.83;21.13;;;20.30;35.00;;;;;;5076674;28;20044;-74
2021/04/02 11:24:47;;;;;;;32.03;20.38;;;20.30;35.10;;;;;;5075170;28;20021;-73
2021/04/02 11:27:13;;;;;;;37.60;22.75;;;20.30;35.30;;;;;;5062755;28;20385;-73
2021/04/02 11:29:39;;;;;;;43.97;25.08;;;20.30;35.40;;;;;;5056753;28;20024;-74
2021/04/02 11:32:09;;;;;;;35.70;22.60;;;20.30;35.80;;;;;;5056299;28;20032;-73
2021/04/02 11:34:36;;;;;;;39.47;24.08;;;20.30;36.00;;;;;;5055452;28;20032;-73
2021/04/02 11:37:04;;;;;;;36.92;22.58;;;20.30;36.10;;;;;;5056299;28;20047;-73
2021/04/02 11:39:30;;;;;;;38.67;24.65;;;20.40;36.40;;;;;;5056072;28;20033;-73
2021/04/02 11:41:57;;;;;;;42.30;24.02;;;20.40;36.40;;;;;;5055031;28;20076;-74
2021/04/02 11:44:23;;;;;;;38.42;23.33;;;20.50;36.50;;;;;;5056969;28;20067;-73
2021/04/02 11:46:50;;;;;;;43.70;26.27;;;20.50;36.40;;;;;;5073190;28;20025;-74
2021/04/02 11:49:16;;;;;;;39.50;22.70;;;20.60;36.20;;;;;;5073075;28;20047;-73
2021/04/02 11:51:43;;;;;;;38.80;23.48;;;20.60;36.00;;;;;;5054571;28;20049;-72
2021/04/02 11:54:09;;;;;;;36.78;21.30;;;20.70;35.90;;;;;;5073311;28;20032;-73
2021/04/02 11:56:34;;;;;;;35.70;21.48;;;20.70;35.60;;;;;;5074073;28;20493;-73
2021/04/02 11:59:01;;;;;;;42.28;24.40;;;20.80;35.70;;;;;;5076146;28;20075;-72
2021/04/02 12:01:27;;;;;;;38.20;23.83;;;20.90;35.50;;;;;;5054306;28;20032;-72
2021/04/02 12:03:53;;;;;;;33.42;21.75;;;21.00;35.30;;;;;;5055870;28;20386;-72
2021/04/02 12:06:19;;;;;;;36.20;21.08;;;21.00;35.30;;;;;;5055839;28;20386;-72
2021/04/02 12:08:44;;;;;;;35.67;21.42;;;21.20;35.50;;;;;;5075780;28;20476;-73
2021/04/02 12:11:10;;;;;;;38.47;25.35;;;21.30;35.40;;;;;;5062413;28;20036;-72
2021/04/02 12:13:36;;;;;;;37.78;23.30;;;21.50;34.30;;;;;;5075666;28;20021;-73
2021/04/02 12:16:03;;;;;;;39.60;24.35;;;21.70;34.30;;;;;;5072914;28;20077;-73
2021/04/02 12:18:29;;;;;;;39.10;23.63;;;21.80;34.10;;;;;;5062055;28;20036;-72
2021/04/02 12:20:55;;;;;;;39.15;25.05;;;21.90;33.70;;;;;;5058586;28;20029;-73
2021/04/02 12:23:21;;;;;;;38.13;24.33;;;21.90;33.40;;;;;;5067635;28;20032;-73
2021/04/02 12:25:47;;;;;;;50.97;28.10;;;21.90;32.80;;;;;;5071565;28;20210;-73
2021/04/02 12:28:13;;;;;;;39.28;23.83;;;21.90;32.30;;;;;;5074106;28;20028;-73
2021/04/02 12:30:40;;;;;;;31.77;19.85;;;21.90;32.50;;;;;;5075452;28;20386;-73
2021/04/02 12:33:06;;;;;;;37.20;23.13;;;21.90;33.20;;;;;;5074727;28;20025;-73
2021/04/02 12:35:33;;;;;;;36.30;22.35;;;22.00;32.50;;;;;;5075428;28;20066;-74
2021/04/02 12:37:58;;;;;;;31.02;20.02;;;22.00;31.10;;;;;;5075403;28;20112;-73